Time;durP1;ratioP1;P1;durP2;ratioP2;P2;SDS_P1;SDS_P2;PMS_P1;PMS_P2;Temp;Humidity;BMP_temperature;BMP_pressure;BME280_temperature;BME280_humidity;BME280_pressure;Samples;Min_cycle;Max_cycle;Signal;HPM_P1;HPM_P2
2023/05/11 00:01:31;;;;;;;20.33;15.77;;;;;;;12.98;100.00;101478.91;5008025;28;20226;-79
2023/05/11 00:03:57;;;;;;;18.87;14.67;;;;;;;12.93;100.00;101477.06;5009832;28;20648;-79
2023/05/11 00:06:22;;;;;;;17.23;14.13;;;;;;;12.95;100.00;101483.09;5005377;28;20200;-78
2023/05/11 00:08:48;;;;;;;18.33;14.73;;;;;;;12.98;100.00;101476.31;5027495;28;20618;-79
2023/05/11 00:11:14;;;;;;;17.87;14.47;;;;;;;12.94;100.00;101478.78;5004829;28;20218;-79
2023/05/11 00:13:39;;;;;;;18.87;15.13;;;;;;;12.93;100.00;101478.75;5008506;28;20195;-77
2023/05/11 00:16:05;;;;;;;19.87;15.03;;;;;;;12.92;100.00;101482.16;5006235;28;20230;-79
2023/05/11 00:18:30;;;;;;;17.87;15.27;;;;;;;12.90;100.00;101479.56;5010906;28;20328;-78
2023/05/11 00:20:56;;;;;;;18.70;14.53;;;;;;;12.93;100.00;101477.91;5012327;28;20209;-79
2023/05/11 00:23:22;;;;;;;22.07;16.37;;;;;;;12.87;100.00;101481.22;5012008;28;20282;-79
2023/05/11 00:25:47;;;;;;;20.07;15.73;;;;;;;12.82;100.00;101486.25;5013828;28;20719;-79
2023/05/11 00:28:13;;;;;;;21.03;15.87;;;;;;;12.82;100.00;101485.41;5016023;28;20202;-78
2023/05/11 00:30:41;;;;;;;22.07;15.53;;;;;;;12.84;100.00;101483.72;5012306;28;20210;-78
2023/05/11 00:33:06;;;;;;;21.17;16.60;;;;;;;12.85;100.00;101483.75;5013516;28;20245;-79
2023/05/11 00:35:32;;;;;;;20.33;16.03;;;;;;;12.85;100.00;101488.00;5016301;28;20223;-79
2023/05/11 00:37:58;;;;;;;19.57;14.93;;;;;;;12.85;100.00;101482.88;5018030;28;20191;-78
2023/05/11 00:40:24;;;;;;;20.53;15.70;;;;;;;12.82;100.00;101481.09;5042740;28;20237;-78
2023/05/11 00:42:49;;;;;;;20.43;15.50;;;;;;;12.84;100.00;101478.56;5014457;28;20605;-78
2023/05/11 00:45:15;;;;;;;21.13;16.13;;;;;;;12.83;100.00;101482.88;5013787;28;20269;-79
2023/05/11 00:47:40;;;;;;;20.47;16.07;;;;;;;12.82;100.00;101481.09;5010698;28;20302;-79
2023/05/11 00:50:07;;;;;;;19.40;15.80;;;;;;;12.80;100.00;101480.22;5010710;28;20645;-79
2023/05/11 00:52:33;;;;;;;22.40;16.80;;;;;;;12.73;100.00;101475.78;5014902;28;20206;-77
2023/05/11 00:54:59;;;;;;;20.57;16.37;;;;;;;12.76;100.00;101478.41;5012762;28;20218;-79
2023/05/11 00:57:25;;;;;;;21.23;16.50;;;;;;;12.78;100.00;101475.88;5002295;28;20210;-78
2023/05/11 00:59:51;;;;;;;20.27;16.10;;;;;;;12.80;100.00;101480.22;5011333;28;20187;-79
2023/05/11 01:02:17;;;;;;;20.77;15.77;;;;;;;12.82;100.00;101478.53;4995447;28;20191;-79
2023/05/11 01:04:43;;;;;;;20.67;16.13;;;;;;;12.80;100.00;101476.78;5022025;28;20677;-79
2023/05/11 01:07:16;;;;;;;21.80;16.97;;;;;;;12.83;100.00;101481.97;5014315;28;20864;-79
2023/05/11 01:09:59;;;;;;;19.70;15.43;;;;;;;12.81;100.00;101475.97;5013168;28;20190;-79
2023/05/11 01:12:32;;;;;;;20.03;16.13;;;;;;;12.82;100.00;101480.25;5013243;28;20546;-79
2023/05/11 01:15:17;;;;;;;20.13;15.73;;;;;;;12.81;100.00;101484.50;4996570;28;20556;-78
2023/05/11 01:17:46;;;;;;;22.67;16.70;;;;;;;12.81;100.00;101473.38;5007172;28;20243;-78
2023/05/11 01:20:17;;;;;;;20.77;15.87;;;;;;;12.80;100.00;101482.78;5039577;28;20187;-78
2023/05/11 01:22:54;;;;;;;19.70;15.13;;;;;;;12.78;100.00;101473.31;5004765;28;20194;-79
2023/05/11 01:26:10;;;;;;;17.47;13.90;;;;;;;12.77;100.00;101482.72;5012305;28;20945;-78
2023/05/11 01:28:49;;;;;;;19.83;14.57;;;;;;;12.74;100.00;101477.53;5002406;28;20229;-78
2023/05/11 01:31:18;;;;;;;19.57;15.23;;;;;;;12.74;100.00;101484.38;5008673;28;20207;-77
2023/05/11 01:33:54;;;;;;;17.77;14.43;;;;;;;12.70;100.00;101478.31;5005497;28;20187;-79
2023/05/11 01:36:24;;;;;;;18.23;13.97;;;;;;;12.72;100.00;101479.19;5010957;28;20218;-79
2023/05/11 01:38:53;;;;;;;19.73;15.53;;;;;;;12.70;100.00;101480.88;5001739;28;20196;-78
2023/05/11 01:41:21;;;;;;;21.40;16.07;;;;;;;12.71;100.00;101485.16;4997996;28;20618;-79
2023/05/11 01:43:59;;;;;;;19.63;15.50;;;;;;;12.73;100.00;101487.78;5006932;28;20278;-79
2023/05/11 01:46:29;;;;;;;20.40;16.00;;;;;;;12.70;100.00;101493.72;5031913;28;20615;-79
2023/05/11 01:48:57;;;;;;;18.70;14.67;;;;;;;12.71;100.00;101492.00;5004844;28;20219;-78
2023/05/11 01:51:30;;;;;;;20.83;15.63;;;;;;;12.71;100.00;101490.31;4983251;28;20192;-78
2023/05/11 01:53:58;;;;;;;19.70;15.17;;;;;;;12.74;100.00;101494.66;5002002;28;20346;-79
2023/05/11 01:56:25;;;;;;;19.57;15.17;;;;;;;12.73;100.00;101498.91;5003697;28;20219;-78
2023/05/11 01:58:54;;;;;;;19.17;14.83;;;;;;;12.73;100.00;101501.47;5005890;28;20205;-79
2023/05/11 02:01:20;;;;;;;19.20;15.50;;;;;;;12.73;100.00;101500.63;4997012;28;20231;-77
2023/05/11 02:03:49;;;;;;;21.87;16.50;;;;;;;12.74;100.00;101494.66;5000391;28;20272;-79
2023/05/11 02:06:17;;;;;;;19.03;15.27;;;;;;;12.76;100.00;101500.69;5004999;28;20207;-79
2023/05/11 02:08:46;;;;;;;19.77;15.53;;;;;;;12.75;100.00;101504.97;5016631;28;20580;-80
2023/05/11 02:11:12;;;;;;;18.27;15.13;;;;;;;12.76;100.00;101509.25;5006709;28;20183;-79
2023/05/11 02:13:41;;;;;;;20.03;14.93;;;;;;;12.75;100.00;101509.22;4991579;28;20187;-79
2023/05/11 02:16:09;;;;;;;19.53;15.20;;;;;;;12.76;100.00;101506.69;5001136;28;20262;-78
2023/05/11 02:18:39;;;;;;;18.53;14.80;;;;;;;12.77;100.00;101508.41;5030888;28;20203;-80
2023/05/11 02:21:07;;;;;;;19.00;14.63;;;;;;;12.77;100.00;101513.56;5009209;28;20191;-79
2023/05/11 02:23:33;;;;;;;18.63;14.70;;;;;;;12.78;100.00;101509.28;4990580;28;20195;-79
2023/05/11 02:26:01;;;;;;;18.00;14.33;;;;;;;12.79;100.00;101508.44;5003164;28;20560;-79
2023/05/11 02:28:26;;;;;;;16.77;14.27;;;;;;;12.79;100.00;101511.03;5033993;28;20756;-79
2023/05/11 02:30:55;;;;;;;18.07;14.27;;;;;;;12.80;100.00;101507.59;5003652;28;20203;-78
2023/05/11 02:33:29;;;;;;;17.93;14.50;;;;;;;12.80;100.00;101508.50;5008679;28;20190;-79
2023/05/11 02:35:56;;;;;;;17.47;14.30;;;;;;;12.81;100.00;101509.38;4992395;28;20230;-79
2023/05/11 02:38:31;;;;;;;17.83;13.40;;;;;;;12.78;100.00;101512.75;5028524;28;20199;-80
2023/05/11 02:40:59;;;;;;;18.50;13.47;;;;;;;12.81;100.00;101514.50;5003601;28;20686;-79
2023/05/11 02:43:30;;;;;;;18.30;14.67;;;;;;;12.80;100.00;101517.88;5002969;28;20837;-78
2023/05/11 02:46:03;;;;;;;19.33;14.60;;;;;;;12.80;100.00;101510.19;5018849;28;20810;-77
2023/05/11 02:48:38;;;;;;;18.10;14.30;;;;;;;12.80;100.00;101517.88;5001420;28;20188;-80
2023/05/11 02:51:06;;;;;;;20.33;14.47;;;;;;;12.81;100.00;101514.50;5004942;28;20284;-78
2023/05/11 02:53:40;;;;;;;19.20;14.03;;;;;;;12.81;100.00;101514.50;5038918;28;20203;-79
2023/05/11 02:56:07;;;;;;;19.20;14.97;;;;;;;12.80;100.00;101511.06;5006381;28;20815;-80
2023/05/11 02:58:34;;;;;;;16.97;13.20;;;;;;;12.80;100.00;101512.75;5040094;28;20354;-79
2023/05/11 03:01:32;;;;;;;16.67;12.90;;;;;;;12.76;100.00;101513.56;4993959;28;20200;-79
2023/05/11 03:03:58;;;;;;;14.57;11.40;;;;;;;12.74;100.00;101510.94;5008464;28;20252;-77
2023/05/11 03:06:25;;;;;;;14.57;11.00;;;;;;;12.74;100.00;101512.63;5003340;28;20220;-79
2023/05/11 03:08:51;;;;;;;12.70;10.23;;;;;;;12.72;100.00;101512.59;5005524;28;20626;-79
2023/05/11 03:11:17;;;;;;;14.40;11.90;;;;;;;12.73;100.00;101518.63;5026982;28;20191;-79
2023/05/11 03:13:45;;;;;;;14.30;11.70;;;;;;;12.71;100.00;101508.28;5004257;28;20190;-78
2023/05/11 03:16:13;;;;;;;15.23;11.80;;;;;;;12.72;100.00;101510.03;5006003;28;20219;-79
2023/05/11 03:18:39;;;;;;;15.03;11.10;;;;;;;12.72;100.00;101511.75;5039714;28;20195;-79
2023/05/11 03:21:06;;;;;;;13.07;10.20;;;;;;;12.70;100.00;101516.84;4992873;28;20188;-79
2023/05/11 03:23:35;;;;;;;12.67;10.00;;;;;;;12.72;100.00;101511.75;5004255;28;20180;-78
2023/05/11 03:26:02;;;;;;;15.00;12.07;;;;;;;12.72;100.00;101514.31;5006478;28;20218;-80
2023/05/11 03:28:29;;;;;;;13.80;11.37;;;;;;;12.73;100.00;101516.03;4991332;28;20198;-80
2023/05/11 03:30:59;;;;;;;12.83;10.57;;;;;;;12.74;100.00;101512.63;4983954;28;20683;-80
2023/05/11 03:33:25;;;;;;;14.40;10.47;;;;;;;12.73;100.00;101509.19;5006079;28;20190;-79
2023/05/11 03:35:52;;;;;;;14.60;11.57;;;;;;;12.73;100.00;101514.31;4994642;28;20225;-80
2023/05/11 03:38:22;;;;;;;15.20;11.80;;;;;;;12.72;100.00;101515.16;5019039;28;20603;-80
2023/05/11 03:40:51;;;;;;;15.83;12.50;;;;;;;12.71;100.00;101515.13;5034095;28;20202;-79
2023/05/11 03:43:19;;;;;;;15.53;11.80;;;;;;;12.72;100.00;101516.88;5041805;28;20195;-79
2023/05/11 03:45:49;;;;;;;14.97;12.23;;;;;;;12.72;100.00;101509.19;4999625;28;20559;-79
2023/05/11 03:48:16;;;;;;;15.57;12.30;;;;;;;12.68;100.00;101509.94;5008864;28;20195;-79
2023/05/11 03:50:42;;;;;;;13.27;10.47;;;;;;;12.68;100.00;101513.34;5009252;28;20214;-79
2023/05/11 03:53:09;;;;;;;15.33;11.90;;;;;;;12.67;100.00;101509.06;4995298;28;20191;-78
2023/05/11 03:55:36;;;;;;;13.63;11.17;;;;;;;12.64;100.00;101510.72;5003357;28;20231;-78
2023/05/11 03:58:05;;;;;;;13.97;10.60;;;;;;;12.66;100.00;101517.63;4987950;28;20214;-77
2023/05/11 04:00:31;;;;;;;15.20;11.30;;;;;;;12.68;100.00;101512.50;5008671;28;20569;-79
2023/05/11 04:02:56;;;;;;;12.50;10.43;;;;;;;12.68;100.00;101513.34;5013950;28;20191;-79
2023/05/11 04:05:22;;;;;;;13.73;10.40;;;;;;;12.68;100.00;101515.09;5014166;28;20183;-79
2023/05/11 04:07:49;;;;;;;13.80;10.37;;;;;;;12.70;100.00;101521.09;5014368;28;20460;-79
2023/05/11 04:10:14;;;;;;;13.40;10.53;;;;;;;12.71;100.00;101515.13;5025301;28;20207;-78
2023/05/11 04:12:40;;;;;;;13.67;10.97;;;;;;;12.74;100.00;101520.34;5012452;28;20199;-79
2023/05/11 04:15:06;;;;;;;12.83;11.00;;;;;;;12.72;100.00;101511.75;5010970;28;20214;-80
2023/05/11 04:17:31;;;;;;;15.57;11.67;;;;;;;12.72;100.00;101522.03;5003349;28;20639;-79
2023/05/11 04:19:57;;;;;;;14.57;11.63;;;;;;;12.71;100.00;101526.28;5010407;28;20277;-79
2023/05/11 04:22:22;;;;;;;15.53;12.60;;;;;;;12.67;100.00;101519.34;5026421;28;20191;-78
2023/05/11 04:24:47;;;;;;;15.03;12.23;;;;;;;12.69;100.00;101520.25;5014639;28;20656;-79
2023/05/11 04:27:15;;;;;;;14.50;11.87;;;;;;;12.74;100.00;101530.63;5014174;28;20264;-79
2023/05/11 04:29:40;;;;;;;14.17;11.50;;;;;;;12.75;100.00;101528.09;5002599;28;20194;-79
2023/05/11 04:32:06;;;;;;;13.70;11.13;;;;;;;12.74;100.00;101526.38;5006728;28;20195;-79
2023/05/11 04:34:31;;;;;;;15.07;12.27;;;;;;;12.73;100.00;101529.75;5011559;28;20282;-79
2023/05/11 04:36:57;;;;;;;15.37;11.63;;;;;;;12.74;100.00;101534.06;5012633;28;20223;-79
2023/05/11 04:39:24;;;;;;;15.03;12.07;;;;;;;12.74;100.00;101528.94;4987774;28;20195;-79
2023/05/11 04:41:49;;;;;;;14.00;11.00;;;;;;;12.72;100.00;101535.72;5008065;28;20285;-79
2023/05/11 04:44:15;;;;;;;17.17;10.77;;;;;;;12.71;100.00;101528.84;5019881;28;20191;-80
2023/05/11 04:46:40;;;;;;;13.57;10.93;;;;;;;12.70;100.00;101532.25;5012495;28;20214;-78
2023/05/11 04:49:06;;;;;;;13.97;11.40;;;;;;;12.76;100.00;101534.13;5007676;28;20218;-79
2023/05/11 04:51:33;;;;;;;14.00;11.07;;;;;;;12.75;100.00;101538.38;5011913;28;20858;-79
2023/05/11 04:53:59;;;;;;;14.97;10.60;;;;;;;12.78;100.00;101538.44;4990177;28;20198;-79
2023/05/11 04:56:25;;;;;;;16.57;12.13;;;;;;;12.76;100.00;101537.53;5042821;28;20610;-78
2023/05/11 04:58:51;;;;;;;13.50;11.03;;;;;;;12.79;100.00;101535.03;5011376;28;20668;-79
2023/05/11 05:01:16;;;;;;;16.83;11.70;;;;;;;12.82;100.00;101541.94;5013743;28;20605;-78
2023/05/11 05:03:42;;;;;;;15.73;11.53;;;;;;;12.84;100.00;101541.13;5012893;28;20179;-78
2023/05/11 05:06:07;;;;;;;16.13;11.40;;;;;;;12.90;100.00;101542.97;4994214;28;20210;-79
2023/05/11 05:08:32;;;;;;;16.10;11.37;;;;;;;12.92;100.00;101541.28;4997230;28;20649;-78
2023/05/11 05:10:58;;;;;;;15.50;11.87;;;;;;;12.94;100.00;101537.03;5013676;28;20254;-79
2023/05/11 05:13:24;;;;;;;15.97;12.17;;;;;;;12.91;100.00;101539.56;5012875;28;20194;-79
2023/05/11 05:15:50;;;;;;;14.10;10.53;;;;;;;12.96;100.00;101537.97;4997597;28;20231;-80
2023/05/11 05:18:16;;;;;;;15.27;11.53;;;;;;;12.95;100.00;101542.22;5037516;28;20537;-79
2023/05/11 05:20:44;;;;;;;15.40;11.77;;;;;;;12.97;100.00;101546.56;5039305;28;20187;-79
2023/05/11 05:23:10;;;;;;;13.60;10.70;;;;;;;12.97;100.00;101543.97;5009485;28;20546;-78
2023/05/11 05:25:35;;;;;;;15.60;11.27;;;;;;;12.89;100.00;101544.66;5012959;28;20206;-78
2023/05/11 05:28:01;;;;;;;15.97;11.13;;;;;;;12.95;100.00;101544.78;5000147;28;20201;-79
2023/05/11 05:30:26;;;;;;;15.80;11.67;;;;;;;12.98;100.00;101543.16;4994956;28;20566;-79
2023/05/11 05:32:53;;;;;;;17.17;11.20;;;;;;;13.05;100.00;101553.59;4993084;28;20233;-79
2023/05/11 05:35:19;;;;;;;13.73;10.20;;;;;;;13.10;100.00;101552.00;5008203;28;20262;-79
2023/05/11 05:37:44;;;;;;;15.27;10.47;;;;;;;13.11;100.00;101556.28;5011654;28;20672;-78
2023/05/11 05:40:10;;;;;;;16.60;10.93;;;;;;;13.04;100.00;101559.59;5007127;28;20196;-79
2023/05/11 05:42:41;;;;;;;17.67;10.87;;;;;;;13.05;100.00;101552.72;5044025;28;20193;-79
2023/05/11 05:45:10;;;;;;;16.73;11.50;;;;;;;13.11;100.00;101555.44;5007336;28;20278;-80
2023/05/11 05:47:35;;;;;;;15.40;10.20;;;;;;;13.15;100.00;101554.66;5039456;28;20259;-79
2023/05/11 05:50:00;;;;;;;16.87;12.40;;;;;;;13.17;100.00;101553.84;4992156;28;20233;-79
2023/05/11 05:52:26;;;;;;;18.77;12.07;;;;;;;13.21;100.00;101555.63;5008345;28;20237;-79
2023/05/11 05:54:52;;;;;;;18.17;12.40;;;;;;;13.27;100.00;101562.63;4987998;28;20229;-80
2023/05/11 05:57:18;;;;;;;20.30;12.30;;;;;;;13.28;100.00;101567.81;5018419;28;20235;-79
2023/05/11 05:59:44;;;;;;;19.47;12.73;;;;;;;13.28;100.00;101574.63;5004218;28;20219;-79
2023/05/11 06:02:12;;;;;;;19.33;12.70;;;;;;;13.30;100.00;101570.41;4997698;28;21104;-79
2023/05/11 06:04:38;;;;;;;22.40;13.77;;;;;;;13.25;100.00;101575.44;5027984;28;20191;-78
2023/05/11 06:07:03;;;;;;;22.07;14.23;;;;;;;13.24;100.00;101580.56;4989674;28;20225;-79
2023/05/11 06:09:28;;;;;;;23.53;14.03;;;;;;;13.23;100.00;101581.41;5012644;28;20195;-79
2023/05/11 06:11:54;;;;;;;24.33;14.63;;;;;;;13.29;100.00;101578.94;4995535;28;20580;-80
2023/05/11 06:14:22;;;;;;;21.13;13.00;;;;;;;13.30;100.00;101589.25;5012750;28;20296;-80
2023/05/11 06:16:48;;;;;;;21.77;13.57;;;;;;;13.34;100.00;101585.03;5015090;28;20215;-79
2023/05/11 06:19:14;;;;;;;18.33;12.27;;;;;;;13.36;100.00;101586.84;5013360;28;20654;-79
2023/05/11 06:21:41;;;;;;;19.77;12.77;;;;;;;13.37;100.00;101587.69;5010670;28;20680;-80
2023/05/11 06:24:07;;;;;;;20.10;12.67;;;;;;;13.36;100.00;101591.09;5007682;28;20191;-79
2023/05/11 06:26:35;;;;;;;18.90;11.63;;;;;;;13.41;100.00;101581.78;5009454;28;20253;-79
2023/05/11 06:29:00;;;;;;;22.83;13.53;;;;;;;13.44;100.00;101586.97;5011786;28;20203;-78
2023/05/11 06:31:28;;;;;;;21.37;14.07;;;;;;;13.45;100.00;101581.84;5009555;28;20741;-79
2023/05/11 06:33:53;;;;;;;21.40;13.70;;;;;;;13.46;100.00;101582.72;5011772;28;20199;-79
2023/05/11 06:36:23;;;;;;;24.77;14.37;;;;;;;13.49;100.00;101585.38;5011058;28;20268;-80
2023/05/11 06:38:49;;;;;;;23.40;14.97;;;;;;;13.53;100.00;101579.44;5012346;28;20599;-78
2023/05/11 06:41:14;;;;;;;26.00;15.07;;;;;;;13.58;100.00;101580.41;5007306;28;20191;-79
2023/05/11 06:43:41;;;;;;;24.67;14.13;;;;;;;13.59;100.00;101574.41;5007066;28;20254;-78
2023/05/11 06:46:17;;;;;;;24.80;14.17;;;;;;;13.58;100.00;101573.53;4995599;28;20202;-78
2023/05/11 06:48:43;;;;;;;24.93;15.30;;;;;;;13.62;100.00;101583.03;5010886;28;20191;-78
2023/05/11 06:51:10;;;;;;;23.73;14.97;;;;;;;13.66;100.00;101578.81;5035563;28;20184;-79
2023/05/11 06:53:36;;;;;;;24.03;14.30;;;;;;;13.65;100.00;101575.38;5009900;28;20222;-79
2023/05/11 06:56:02;;;;;;;26.63;14.83;;;;;;;13.65;100.00;101577.97;5003201;28;20639;-78
2023/05/11 06:58:28;;;;;;;23.20;14.33;;;;;;;13.69;100.00;101581.44;5006846;28;20342;-79
2023/05/11 07:00:53;;;;;;;26.57;14.93;;;;;;;13.71;100.00;101585.78;5006091;28;20194;-79
2023/05/11 07:03:18;;;;;;;23.60;14.27;;;;;;;13.73;100.00;101584.13;5010881;28;20187;-79
2023/05/11 07:05:44;;;;;;;26.13;14.93;;;;;;;13.76;100.00;101585.91;5010232;28;20187;-78
2023/05/11 07:08:09;;;;;;;26.17;14.93;;;;;;;13.73;100.00;101586.72;5008236;28;20203;-78
2023/05/11 07:10:35;;;;;;;25.10;14.57;;;;;;;13.77;100.00;101587.63;5007994;28;20223;-79
2023/05/11 07:13:00;;;;;;;26.30;15.23;;;;;;;13.82;100.00;101586.88;5009246;28;20203;-76
2023/05/11 07:15:26;;;;;;;28.50;15.87;;;;;;;13.83;100.00;101586.03;5004943;28;20215;-76
2023/05/11 07:17:52;;;;;;;25.70;15.10;;;;;;;13.88;100.00;101578.38;5007380;28;20226;-78
2023/05/11 07:20:17;;;;;;;24.70;14.10;;;;;;;13.92;100.00;101581.03;5008707;28;20206;-77
2023/05/11 07:22:43;;;;;;;26.43;15.00;;;;;;;14.01;100.00;101582.91;5010580;28;20199;-80
2023/05/11 07:25:08;;;;;;;26.80;16.07;;;;;;;14.02;100.00;101584.63;5008603;28;20195;-80
2023/05/11 07:27:34;;;;;;;30.33;16.97;;;;;;;14.06;100.00;101589.88;5009168;28;20214;-80
2023/05/11 07:30:00;;;;;;;23.43;14.07;;;;;;;14.08;100.00;101588.19;5008298;28;20727;-79
2023/05/11 07:32:25;;;;;;;26.53;14.90;;;;;;;14.08;100.00;101588.19;5010808;28;20207;-80
2023/05/11 07:34:50;;;;;;;23.63;14.27;;;;;;;14.04;100.00;101588.13;5015409;28;20214;-78
2023/05/11 07:37:16;;;;;;;26.47;16.03;;;;;;;14.13;100.00;101583.97;5012033;28;20229;-77
2023/05/11 07:39:41;;;;;;;25.40;14.90;;;;;;;14.13;100.00;101585.69;5017226;28;20187;-78
2023/05/11 07:42:07;;;;;;;26.03;14.60;;;;;;;14.15;100.00;101584.88;5013586;28;20727;-79
2023/05/11 07:44:32;;;;;;;23.67;13.90;;;;;;;14.16;100.00;101581.47;5013171;28;20700;-77
2023/05/11 07:46:58;;;;;;;27.57;15.70;;;;;;;14.17;100.00;101582.31;5017742;28;20310;-79
2023/05/11 07:49:23;;;;;;;24.90;14.83;;;;;;;14.17;100.00;101582.31;5018654;28;20242;-79
2023/05/11 07:51:49;;;;;;;27.07;15.37;;;;;;;14.17;100.00;101590.03;5012788;28;20191;-78
2023/05/11 07:54:14;;;;;;;28.00;16.00;;;;;;;14.21;100.00;101586.69;5014162;28;20190;-82
2023/05/11 07:56:40;;;;;;;26.43;14.87;;;;;;;14.22;100.00;101589.31;5011169;28;20219;-78
2023/05/11 07:59:06;;;;;;;25.03;14.30;;;;;;;14.31;100.00;101589.47;5011175;28;20961;-79
2023/05/11 08:01:32;;;;;;;25.93;14.73;;;;;;;14.35;100.00;101588.69;5010970;28;20218;-79
2023/05/11 08:03:58;;;;;;;22.87;14.03;;;;;;;14.41;100.00;101591.34;4995306;28;20195;-81
2023/05/11 08:06:23;;;;;;;22.27;12.63;;;;;;;14.39;100.00;101594.72;5040306;28;20215;-81
2023/05/11 08:08:48;;;;;;;23.70;13.10;;;;;;;14.32;100.00;101590.34;5010333;28;20199;-79
2023/05/11 08:11:14;;;;;;;23.33;13.17;;;;;;;14.27;100.00;101589.41;4995290;28;20207;-80
2023/05/11 08:13:39;;;;;;;21.07;12.37;;;;;;;14.31;100.00;101597.19;5010935;28;20195;-80
2023/05/11 08:16:05;;;;;;;18.83;11.57;;;;;;;14.32;100.00;101595.50;5006783;28;20238;-78
2023/05/11 08:18:31;;;;;;;18.67;11.33;;;;;;;14.37;100.00;101588.69;4994681;28;20197;-80
2023/05/11 08:20:56;;;;;;;20.53;13.57;;;;;;;14.39;100.00;101595.63;5008833;28;20199;-81
2023/05/11 08:23:22;;;;;;;19.80;13.17;;;;;;;14.35;100.00;101593.81;5011482;28;20202;-81
2023/05/11 08:25:52;;;;;;;20.60;12.07;;;;;;;14.27;100.00;101603.13;5012139;28;20207;-79
2023/05/11 08:28:18;;;;;;;18.63;11.87;;;;;;;14.15;100.00;101604.59;5011508;28;20281;-79
2023/05/11 08:30:44;;;;;;;20.27;11.87;;;;;;;14.13;100.00;101604.56;5011002;28;20202;-80
2023/05/11 08:33:10;;;;;;;20.17;11.23;;;;;;;14.18;100.00;101607.25;5011119;28;20183;-80
2023/05/11 08:35:37;;;;;;;18.13;10.30;;;;;;;14.23;100.00;101596.19;5009869;28;20588;-80
2023/05/11 08:38:03;;;;;;;16.73;10.00;;;;;;;14.28;100.00;101601.44;4989918;28;20317;-80
2023/05/11 08:40:29;;;;;;;17.33;10.37;;;;;;;14.38;100.00;101603.31;4972662;28;20927;-79
2023/05/11 08:42:58;;;;;;;15.10;9.97;;;;;;;14.45;100.00;101600.84;4972925;28;20207;-81
2023/05/11 08:45:25;;;;;;;17.20;9.83;;;;;;;14.45;100.00;101598.28;5008883;28;20214;-80
2023/05/11 08:47:52;;;;;;;16.50;10.73;;;;;;;14.53;100.00;101603.56;5012900;28;20242;-80
2023/05/11 08:50:18;;;;;;;15.40;9.93;;;;;;;14.57;100.00;101603.63;5013163;28;20214;-81
2023/05/11 08:52:43;;;;;;;15.77;10.10;;;;;;;14.51;100.00;101605.25;4995711;28;20188;-80
2023/05/11 08:55:09;;;;;;;15.23;9.43;;;;;;;14.52;100.00;101609.56;5013788;28;20211;-81
2023/05/11 08:57:35;;;;;;;15.13;9.90;;;;;;;14.47;100.00;101609.50;5011012;28;20957;-77
2023/05/11 09:00:02;;;;;;;16.83;9.63;;;;;;;14.35;100.00;101619.59;5010870;28;20203;-77
2023/05/11 09:02:28;;;;;;;14.03;9.30;;;;;;;14.37;100.00;101623.06;4996688;28;20190;-85
2023/05/11 09:04:54;;;;;;;15.43;9.47;;;;;;;14.51;100.00;101618.13;5011901;28;20538;-81
2023/05/11 09:07:22;;;;;;;15.80;9.90;;;;;;;14.69;100.00;101616.69;5005443;28;20215;-80
2023/05/11 09:09:47;;;;;;;14.90;9.43;;;;;;;14.78;100.00;101615.97;5011170;28;20314;-79
2023/05/11 09:12:14;;;;;;;15.30;9.83;;;;;;;14.75;100.00;101611.66;5010849;28;20218;-78
2023/05/11 09:14:40;;;;;;;13.53;8.67;;;;;;;14.77;100.00;101619.38;5011613;28;20199;-78
2023/05/11 09:17:06;;;;;;;12.47;8.43;;;;;;;14.68;100.00;101622.69;5007545;28;20234;-79
2023/05/11 09:19:31;;;;;;;12.00;8.43;;;;;;;14.77;100.00;101612.53;5009398;28;20575;-79
2023/05/11 09:21:59;;;;;;;12.83;8.87;;;;;;;14.82;100.00;101610.03;5011715;28;20227;-79
2023/05/11 09:24:25;;;;;;;13.23;8.80;;;;;;;14.88;100.00;101615.25;5008727;28;20290;-78
2023/05/11 09:27:10;;;;;;;13.27;8.33;;;;;;;14.88;100.00;101613.53;5009374;28;20233;-79
2023/05/11 09:29:36;;;;;;;13.57;8.90;;;;;;;14.96;100.00;101611.09;5013935;28;20775;-80
2023/05/11 09:32:01;;;;;;;15.07;8.73;;;;;;;15.02;100.00;101614.63;5004777;28;20199;-80
2023/05/11 09:34:27;;;;;;;14.53;9.57;;;;;;;15.10;100.00;101614.72;5010540;28;20196;-80
2023/05/11 09:36:54;;;;;;;12.07;8.10;;;;;;;15.19;100.00;101614.84;5007357;28;20245;-78
2023/05/11 09:39:33;;;;;;;13.63;9.10;;;;;;;15.21;100.00;101613.13;5010934;28;20657;-79
2023/05/11 09:42:15;;;;;;;12.60;8.43;;;;;;;15.23;100.00;101614.00;5012337;28;20734;-78
2023/05/11 09:44:43;;;;;;;13.57;8.57;;;;;;;15.23;100.00;101614.88;5010440;28;20544;-79
2023/05/11 09:47:21;;;;;;;14.67;9.37;;;;;;;15.21;100.00;101613.13;5004419;28;20696;-79
2023/05/11 09:49:47;;;;;;;13.33;8.90;;;;;;;15.27;100.00;101615.78;5010890;28;20209;-79
2023/05/11 09:52:14;;;;;;;14.40;9.37;;;;;;;15.31;100.00;101609.81;5014153;28;20191;-77
2023/05/11 09:54:45;;;;;;;14.53;9.77;;;;;;;15.34;100.00;101618.50;5004932;28;20206;-79
2023/05/11 09:57:28;;;;;;;14.77;9.73;;;;;;;15.35;100.00;101609.94;5011290;28;20225;-79
2023/05/11 09:59:55;;;;;;;14.47;9.67;;;;;;;15.37;100.00;101610.81;5009748;28;20567;-80
2023/05/11 10:02:22;;;;;;;14.73;9.40;;;;;;;15.38;100.00;101604.78;5008458;28;20202;-79
2023/05/11 10:04:52;;;;;;;14.43;9.27;;;;;;;15.44;100.00;101611.75;5009040;28;20270;-81
2023/05/11 10:07:34;;;;;;;15.70;10.33;;;;;;;15.52;100.00;101603.22;4992881;28;20221;-81
2023/05/11 10:10:02;;;;;;;15.30;10.07;;;;;;;15.57;100.00;101617.06;5011733;28;20202;-81
2023/05/11 10:12:31;;;;;;;15.97;10.20;;;;;;;15.58;100.00;101608.50;4993916;28;20542;-81
2023/05/11 10:15:03;;;;;;;16.03;9.97;;;;;;;15.67;100.00;101602.56;5011426;28;20836;-79
2023/05/11 10:17:31;;;;;;;15.23;9.93;;;;;;;15.73;100.00;101600.03;5000405;28;20319;-78
2023/05/11 10:19:58;;;;;;;16.43;11.07;;;;;;;15.77;100.00;101606.97;4992161;28;20274;-80
2023/05/11 10:22:28;;;;;;;13.90;10.10;;;;;;;15.90;100.00;101598.50;5009448;28;20199;-79
2023/05/11 10:24:56;;;;;;;15.13;11.00;;;;;;;15.94;100.00;101600.25;4992431;28;20202;-81
2023/05/11 10:27:22;;;;;;;14.83;11.47;;;;;;;15.97;100.00;101595.97;4990605;28;20214;-80
2023/05/11 10:29:49;;;;;;;18.67;11.97;;;;;;;16.11;100.00;101588.38;5006167;28;20191;-81
2023/05/11 10:32:16;;;;;;;16.73;12.03;;;;;;;16.21;100.00;101597.94;5007983;28;20193;-81
2023/05/11 10:34:46;;;;;;;16.07;12.30;;;;;;;16.25;100.00;101594.53;5008945;28;20226;-81
2023/05/11 10:37:14;;;;;;;16.30;12.63;;;;;;;16.27;100.00;101591.09;5010212;28;20218;-80
2023/05/11 10:39:40;;;;;;;16.50;11.80;;;;;;;16.32;100.00;101588.53;4995909;28;20679;-80
2023/05/11 10:42:35;;;;;;;18.50;13.13;;;;;;;16.43;100.00;101581.75;5010186;28;20207;-80
2023/05/11 10:45:17;;;;;;;18.50;12.60;;;;;;;16.51;100.00;101586.16;4991276;28;20286;-80
2023/05/11 10:48:01;;;;;;;16.67;12.50;;;;;;;16.58;100.00;101587.91;5009068;28;20221;-81
2023/05/11 10:50:39;;;;;;;16.33;13.03;;;;;;;16.64;100.00;101582.78;5007120;28;20253;-81
2023/05/11 10:53:32;;;;;;;17.70;12.00;;;;;;;16.72;100.00;101581.09;5008289;28;20226;-79
2023/05/11 10:56:17;;;;;;;15.90;12.53;;;;;;;16.89;100.00;101576.00;5005533;28;20260;-81
2023/05/11 10:59:19;;;;;;;15.33;12.20;;;;;;;16.99;100.00;101580.41;5010542;28;20281;-78
2023/05/11 11:01:45;;;;;;;16.03;12.17;;;;;;;17.06;100.00;101583.03;5004117;28;20217;-80
2023/05/11 11:04:12;;;;;;;14.87;11.73;;;;;;;17.25;100.00;101579.66;4988484;28;20210;-81
2023/05/11 11:06:40;;;;;;;12.30;10.53;;;;;;;17.63;100.00;101580.69;4991925;28;20218;-82